Smithers Airport
CYYD : rendu visible

Aérodrome :











RETROUVEZ-NOUS SUR...

 
LOGIN :

S'inscrire | Disclaimer

   EN    FR    IT 

 









Légende :    VFR   VFR Marginal   IFR   IFR Intensif   IFR Très Intensif
Visi : 
Plafond : 
>= 8 km
>= 3000ft
5 à 8 km
1000 à 3000 ft
1500m à 5 km
500 à 1000 ft
800 à 1500m
200 à 500 ft
< 800m
< 200 ft
Symboles :   Orages  Brouillard  Fortes neiges  Fortes précipitations  Vent > 20 kt






- Altitude de l'aérodrome : 1712 ft
- Code IATA : YYD


CYYD - Smithers

DERNIER METAR :
  • 290900Z AUTO VRB02KT 9SM FEW060 SCT071 OVC093 02/01 A2936 RMK SLP956

METARs EXPIRÉS :
  • 290835Z AUTO 00000KT 9SM SCT041 BKN075 BKN100 OVC120 03/01 A2936 RMK SLP956
  • 290817Z AUTO 00000KT 9SM -RA BKN046 OVC065 02/01 A2936 RMK SLP957
  • 290800Z AUTO VRB02KT 9SM SCT055 OVC071 03/01 A2936 RMK SLP957
  • 290720Z AUTO 16003KT 9SM SCT055 BKN071 OVC094 03/00 A2935 RMK SLP954
  • 290700Z AUTO 15007KT 9SM -RA OVC040 03/00 A2935 RMK SLP954

Prévision TAF périmée.



MET'MAP, la Météo Aéronautique d'un coup d'oeil ! - Copyright ORBIFLY Décembre 2007 - Disclaimer

ORBIFLY MET'MAP TEAM :

Programmation & Développement : Alexandra Zaïnal
Sur une idée originale de : Baudouin d'Aumeries
Assistance à la programmation : Marc-Olivier Méhu
Soutien technique & logistique : Manuel Goepfert

Contact : metmap@orbifly.com




SOURCES & CREDITS :

   NOAA       Earth
Advisory